sensor_id;sensor_type;location;lat;lon;timestamp;temperature;humidity
6841;DHT22;3458;53.678;14.080;2023-07-29T00:00:40;19.00;99.90
6841;DHT22;3458;53.678;14.080;2023-07-29T00:03:06;19.00;99.90
6841;DHT22;3458;53.678;14.080;2023-07-29T00:05:31;18.90;99.90
6841;DHT22;3458;53.678;14.080;2023-07-29T00:07:57;18.90;99.90
6841;DHT22;3458;53.678;14.080;2023-07-29T00:10:22;18.90;99.90
6841;DHT22;3458;53.678;14.080;2023-07-29T00:12:48;18.90;99.90
6841;DHT22;3458;53.678;14.080;2023-07-29T00:15:13;18.80;99.90
6841;DHT22;3458;53.678;14.080;2023-07-29T00:17:39;18.80;99.90
6841;DHT22;3458;53.678;14.080;2023-07-29T00:20:07;18.80;99.90
6841;DHT22;3458;53.678;14.080;2023-07-29T00:22:33;18.80;99.90
6841;DHT22;3458;53.678;14.080;2023-07-29T00:24:58;18.80;99.90
6841;DHT22;3458;53.678;14.080;2023-07-29T00:27:24;18.80;99.90
6841;DHT22;3458;53.678;14.080;2023-07-29T00:29:50;18.70;99.90
6841;DHT22;3458;53.678;14.080;2023-07-29T00:32:16;18.70;99.90
6841;DHT22;3458;53.678;14.080;2023-07-29T00:34:41;18.70;99.90
6841;DHT22;3458;53.678;14.080;2023-07-29T00:37:07;18.70;99.90
6841;DHT22;3458;53.678;14.080;2023-07-29T00:39:33;18.70;99.90
6841;DHT22;3458;53.678;14.080;2023-07-29T00:41:58;18.70;99.90
6841;DHT22;3458;53.678;14.080;2023-07-29T00:44:24;18.70;99.90
6841;DHT22;3458;53.678;14.080;2023-07-29T00:46:53;18.70;99.90
6841;DHT22;3458;53.678;14.080;2023-07-29T00:49:20;18.60;99.90
6841;DHT22;3458;53.678;14.080;2023-07-29T00:51:46;18.60;99.90
6841;DHT22;3458;53.678;14.080;2023-07-29T00:54:12;18.50;99.90
6841;DHT22;3458;53.678;14.080;2023-07-29T00:56:38;18.50;99.90
6841;DHT22;3458;53.678;14.080;2023-07-29T00:59:03;18.50;99.90
6841;DHT22;3458;53.678;14.080;2023-07-29T01:01:30;18.50;99.90
6841;DHT22;3458;53.678;14.080;2023-07-29T01:03:56;18.50;99.90
6841;DHT22;3458;53.678;14.080;2023-07-29T01:06:49;18.50;99.90
6841;DHT22;3458;53.678;14.080;2023-07-29T01:09:33;18.50;99.90
6841;DHT22;3458;53.678;14.080;2023-07-29T01:12:16;18.50;99.90
6841;DHT22;3458;53.678;14.080;2023-07-29T01:14:59;18.50;99.90
6841;DHT22;3458;53.678;14.080;2023-07-29T01:17:33;18.40;99.90
6841;DHT22;3458;53.678;14.080;2023-07-29T01:20:07;18.40;99.90
6841;DHT22;3458;53.678;14.080;2023-07-29T01:22:36;18.40;99.90
6841;DHT22;3458;53.678;14.080;2023-07-29T01:25:03;18.30;99.90
6841;DHT22;3458;53.678;14.080;2023-07-29T01:27:29;18.30;99.90
6841;DHT22;3458;53.678;14.080;2023-07-29T01:29:55;18.30;99.90
6841;DHT22;3458;53.678;14.080;2023-07-29T01:32:31;18.30;99.90
6841;DHT22;3458;53.678;14.080;2023-07-29T01:35:03;18.30;99.90
6841;DHT22;3458;53.678;14.080;2023-07-29T01:37:34;18.30;99.90
6841;DHT22;3458;53.678;14.080;2023-07-29T01:40:08;18.30;99.90
6841;DHT22;3458;53.678;14.080;2023-07-29T01:42:34;18.20;99.90
6841;DHT22;3458;53.678;14.080;2023-07-29T01:44:59;18.20;99.90
6841;DHT22;3458;53.678;14.080;2023-07-29T01:47:25;18.20;99.90
6841;DHT22;3458;53.678;14.080;2023-07-29T01:49:51;18.30;99.90
6841;DHT22;3458;53.678;14.080;2023-07-29T01:52:16;18.30;99.90
6841;DHT22;3458;53.678;14.080;2023-07-29T01:54:42;18.20;99.90
6841;DHT22;3458;53.678;14.080;2023-07-29T01:57:07;18.20;99.90
6841;DHT22;3458;53.678;14.080;2023-07-29T01:59:33;18.20;99.90
6841;DHT22;3458;53.678;14.080;2023-07-29T02:01:58;18.30;99.90
6841;DHT22;3458;53.678;14.080;2023-07-29T02:04:24;18.20;99.90
6841;DHT22;3458;53.678;14.080;2023-07-29T02:06:49;18.20;99.90
6841;DHT22;3458;53.678;14.080;2023-07-29T02:09:15;18.20;99.90
6841;DHT22;3458;53.678;14.080;2023-07-29T02:11:40;18.10;99.90
6841;DHT22;3458;53.678;14.080;2023-07-29T02:14:06;18.10;99.90
6841;DHT22;3458;53.678;14.080;2023-07-29T02:16:31;18.10;99.90
6841;DHT22;3458;53.678;14.080;2023-07-29T02:18:58;18.10;99.90
6841;DHT22;3458;53.678;14.080;2023-07-29T02:21:23;18.10;99.90
6841;DHT22;3458;53.678;14.080;2023-07-29T02:23:49;18.10;99.90
6841;DHT22;3458;53.678;14.080;2023-07-29T02:26:14;18.10;99.90
6841;DHT22;3458;53.678;14.080;2023-07-29T02:28:40;18.10;99.90
6841;DHT22;3458;53.678;14.080;2023-07-29T02:33:39;18.10;99.90
6841;DHT22;3458;53.678;14.080;2023-07-29T02:36:05;18.10;99.90
6841;DHT22;3458;53.678;14.080;2023-07-29T02:38:30;18.10;99.90
6841;DHT22;3458;53.678;14.080;2023-07-29T02:40:56;18.10;99.90
6841;DHT22;3458;53.678;14.080;2023-07-29T02:43:21;18.10;99.90
6841;DHT22;3458;53.678;14.080;2023-07-29T02:45:47;18.10;99.90
6841;DHT22;3458;53.678;14.080;2023-07-29T02:48:12;18.00;99.90
6841;DHT22;3458;53.678;14.080;2023-07-29T02:50:38;18.00;99.90
6841;DHT22;3458;53.678;14.080;2023-07-29T02:53:03;18.00;99.90
6841;DHT22;3458;53.678;14.080;2023-07-29T02:55:29;18.00;99.90
6841;DHT22;3458;53.678;14.080;2023-07-29T02:57:54;18.00;99.90
6841;DHT22;3458;53.678;14.080;2023-07-29T03:00:20;18.00;99.90
6841;DHT22;3458;53.678;14.080;2023-07-29T03:02:45;18.00;99.90
6841;DHT22;3458;53.678;14.080;2023-07-29T03:05:11;18.00;99.90
6841;DHT22;3458;53.678;14.080;2023-07-29T03:07:36;18.00;99.90
6841;DHT22;3458;53.678;14.080;2023-07-29T03:10:02;18.00;99.90
6841;DHT22;3458;53.678;14.080;2023-07-29T03:12:27;18.10;99.90
6841;DHT22;3458;53.678;14.080;2023-07-29T03:14:53;18.00;99.90
6841;DHT22;3458;53.678;14.080;2023-07-29T03:17:18;18.00;99.90
6841;DHT22;3458;53.678;14.080;2023-07-29T03:19:44;18.00;99.90
6841;DHT22;3458;53.678;14.080;2023-07-29T03:22:09;18.00;99.90
6841;DHT22;3458;53.678;14.080;2023-07-29T03:24:35;18.00;99.90
6841;DHT22;3458;53.678;14.080;2023-07-29T03:27:00;18.00;99.90
6841;DHT22;3458;53.678;14.080;2023-07-29T03:29:26;18.00;99.90
6841;DHT22;3458;53.678;14.080;2023-07-29T03:31:51;18.00;99.90
6841;DHT22;3458;53.678;14.080;2023-07-29T03:34:17;18.00;99.90
6841;DHT22;3458;53.678;14.080;2023-07-29T03:36:42;18.00;99.90
6841;DHT22;3458;53.678;14.080;2023-07-29T03:39:08;18.10;99.90
6841;DHT22;3458;53.678;14.080;2023-07-29T03:41:33;18.10;99.90
6841;DHT22;3458;53.678;14.080;2023-07-29T03:43:59;18.10;99.90
6841;DHT22;3458;53.678;14.080;2023-07-29T03:46:25;18.10;99.90
6841;DHT22;3458;53.678;14.080;2023-07-29T03:48:50;18.10;99.90
6841;DHT22;3458;53.678;14.080;2023-07-29T03:51:16;18.20;99.90
6841;DHT22;3458;53.678;14.080;2023-07-29T03:53:41;18.10;99.90
6841;DHT22;3458;53.678;14.080;2023-07-29T03:56:07;18.10;99.90
6841;DHT22;3458;53.678;14.080;2023-07-29T03:58:33;18.10;99.90
6841;DHT22;3458;53.678;14.080;2023-07-29T04:00:58;18.10;99.90
6841;DHT22;3458;53.678;14.080;2023-07-29T04:03:24;18.10;99.90
6841;DHT22;3458;53.678;14.080;2023-07-29T04:05:49;18.20;99.90
6841;DHT22;3458;53.678;14.080;2023-07-29T04:08:15;18.20;99.90
6841;DHT22;3458;53.678;14.080;2023-07-29T04:10:40;18.20;99.90
6841;DHT22;3458;53.678;14.080;2023-07-29T04:13:06;18.20;99.90
6841;DHT22;3458;53.678;14.080;2023-07-29T04:15:31;18.20;99.90
6841;DHT22;3458;53.678;14.080;2023-07-29T04:17:57;18.20;99.90
6841;DHT22;3458;53.678;14.080;2023-07-29T04:20:22;18.30;99.90
6841;DHT22;3458;53.678;14.080;2023-07-29T04:22:48;18.30;99.90
6841;DHT22;3458;53.678;14.080;2023-07-29T04:25:13;18.30;99.90
6841;DHT22;3458;53.678;14.080;2023-07-29T04:27:39;18.30;99.90
6841;DHT22;3458;53.678;14.080;2023-07-29T04:30:05;18.30;99.90
6841;DHT22;3458;53.678;14.080;2023-07-29T04:32:30;18.20;99.90
6841;DHT22;3458;53.678;14.080;2023-07-29T04:34:56;18.20;99.90
6841;DHT22;3458;53.678;14.080;2023-07-29T04:37:21;18.20;99.90
6841;DHT22;3458;53.678;14.080;2023-07-29T04:39:47;18.30;99.90
6841;DHT22;3458;53.678;14.080;2023-07-29T04:42:13;18.30;99.90
6841;DHT22;3458;53.678;14.080;2023-07-29T04:44:38;18.30;99.90
6841;DHT22;3458;53.678;14.080;2023-07-29T04:47:04;18.30;99.90
6841;DHT22;3458;53.678;14.080;2023-07-29T04:49:29;18.30;99.90
6841;DHT22;3458;53.678;14.080;2023-07-29T04:51:55;18.30;99.90
6841;DHT22;3458;53.678;14.080;2023-07-29T04:54:20;18.20;99.90
6841;DHT22;3458;53.678;14.080;2023-07-29T04:56:46;18.20;99.90
6841;DHT22;3458;53.678;14.080;2023-07-29T04:59:12;18.20;99.90
6841;DHT22;3458;53.678;14.080;2023-07-29T05:01:38;18.30;99.90
6841;DHT22;3458;53.678;14.080;2023-07-29T05:04:04;18.30;99.90
6841;DHT22;3458;53.678;14.080;2023-07-29T05:06:29;18.30;99.90
6841;DHT22;3458;53.678;14.080;2023-07-29T05:08:57;18.40;99.90
6841;DHT22;3458;53.678;14.080;2023-07-29T05:11:23;18.30;99.90
6841;DHT22;3458;53.678;14.080;2023-07-29T05:13:50;18.40;99.90
6841;DHT22;3458;53.678;14.080;2023-07-29T05:16:16;18.40;99.90
6841;DHT22;3458;53.678;14.080;2023-07-29T05:18:41;18.40;99.90
6841;DHT22;3458;53.678;14.080;2023-07-29T05:21:07;18.50;99.90
6841;DHT22;3458;53.678;14.080;2023-07-29T05:23:33;18.50;99.90
6841;DHT22;3458;53.678;14.080;2023-07-29T05:25:59;18.50;99.90
6841;DHT22;3458;53.678;14.080;2023-07-29T05:28:24;18.50;99.90
6841;DHT22;3458;53.678;14.080;2023-07-29T05:30:50;18.50;99.90
6841;DHT22;3458;53.678;14.080;2023-07-29T05:33:16;18.50;99.90
6841;DHT22;3458;53.678;14.080;2023-07-29T05:35:41;18.50;99.90
6841;DHT22;3458;53.678;14.080;2023-07-29T05:38:07;18.50;99.90
6841;DHT22;3458;53.678;14.080;2023-07-29T05:40:33;18.50;99.90
6841;DHT22;3458;53.678;14.080;2023-07-29T05:42:59;18.50;99.90
6841;DHT22;3458;53.678;14.080;2023-07-29T05:45:24;18.50;99.90
6841;DHT22;3458;53.678;14.080;2023-07-29T05:47:50;18.60;99.90
6841;DHT22;3458;53.678;14.080;2023-07-29T05:50:15;18.60;99.90
6841;DHT22;3458;53.678;14.080;2023-07-29T05:52:41;18.60;99.90
6841;DHT22;3458;53.678;14.080;2023-07-29T05:55:07;18.60;99.90
6841;DHT22;3458;53.678;14.080;2023-07-29T05:57:32;18.70;99.90
6841;DHT22;3458;53.678;14.080;2023-07-29T05:59:58;18.70;99.90
6841;DHT22;3458;53.678;14.080;2023-07-29T06:02:23;18.70;99.90
6841;DHT22;3458;53.678;14.080;2023-07-29T06:04:49;18.70;99.90
6841;DHT22;3458;53.678;14.080;2023-07-29T06:07:15;18.70;99.90
6841;DHT22;3458;53.678;14.080;2023-07-29T06:09:40;18.70;99.90
6841;DHT22;3458;53.678;14.080;2023-07-29T06:12:06;18.70;99.90
6841;DHT22;3458;53.678;14.080;2023-07-29T06:14:32;18.70;99.90
6841;DHT22;3458;53.678;14.080;2023-07-29T06:16:57;18.70;99.90
6841;DHT22;3458;53.678;14.080;2023-07-29T06:19:22;18.70;99.90
6841;DHT22;3458;53.678;14.080;2023-07-29T06:21:48;18.70;99.90
6841;DHT22;3458;53.678;14.080;2023-07-29T06:24:14;18.70;99.90
6841;DHT22;3458;53.678;14.080;2023-07-29T06:26:39;18.70;99.90
6841;DHT22;3458;53.678;14.080;2023-07-29T06:29:04;18.70;99.90
6841;DHT22;3458;53.678;14.080;2023-07-29T06:31:30;18.70;99.90
6841;DHT22;3458;53.678;14.080;2023-07-29T06:33:58;18.80;99.90
6841;DHT22;3458;53.678;14.080;2023-07-29T06:36:23;18.80;99.90
6841;DHT22;3458;53.678;14.080;2023-07-29T06:38:48;18.90;99.90
6841;DHT22;3458;53.678;14.080;2023-07-29T06:41:14;18.90;99.90
6841;DHT22;3458;53.678;14.080;2023-07-29T06:43:39;19.00;99.90
6841;DHT22;3458;53.678;14.080;2023-07-29T06:46:05;19.00;99.90
6841;DHT22;3458;53.678;14.080;2023-07-29T06:48:31;19.10;99.90
6841;DHT22;3458;53.678;14.080;2023-07-29T06:50:56;19.10;99.90
6841;DHT22;3458;53.678;14.080;2023-07-29T06:53:26;19.10;99.90
6841;DHT22;3458;53.678;14.080;2023-07-29T06:55:51;19.10;99.90
6841;DHT22;3458;53.678;14.080;2023-07-29T06:58:17;19.10;99.90
6841;DHT22;3458;53.678;14.080;2023-07-29T07:00:42;19.10;99.90
6841;DHT22;3458;53.678;14.080;2023-07-29T07:03:08;19.10;99.90
6841;DHT22;3458;53.678;14.080;2023-07-29T07:05:33;19.20;99.90
6841;DHT22;3458;53.678;14.080;2023-07-29T07:07:59;19.20;99.90
6841;DHT22;3458;53.678;14.080;2023-07-29T07:10:24;19.30;99.90
6841;DHT22;3458;53.678;14.080;2023-07-29T07:12:50;19.40;99.90
6841;DHT22;3458;53.678;14.080;2023-07-29T07:15:15;19.40;99.90
6841;DHT22;3458;53.678;14.080;2023-07-29T07:17:41;19.50;99.90
6841;DHT22;3458;53.678;14.080;2023-07-29T07:20:07;19.50;99.90
6841;DHT22;3458;53.678;14.080;2023-07-29T07:22:32;19.60;99.90
6841;DHT22;3458;53.678;14.080;2023-07-29T07:24:58;19.70;99.90
6841;DHT22;3458;53.678;14.080;2023-07-29T07:27:23;19.80;99.90
6841;DHT22;3458;53.678;14.080;2023-07-29T07:29:49;19.80;99.90
6841;DHT22;3458;53.678;14.080;2023-07-29T07:32:14;19.90;99.90
6841;DHT22;3458;53.678;14.080;2023-07-29T07:34:40;19.90;99.90
6841;DHT22;3458;53.678;14.080;2023-07-29T07:37:05;19.90;99.90
6841;DHT22;3458;53.678;14.080;2023-07-29T07:39:31;20.00;99.90
6841;DHT22;3458;53.678;14.080;2023-07-29T07:41:57;20.00;99.90
6841;DHT22;3458;53.678;14.080;2023-07-29T07:44:22;20.00;99.90
6841;DHT22;3458;53.678;14.080;2023-07-29T07:46:48;20.00;99.90
6841;DHT22;3458;53.678;14.080;2023-07-29T07:49:14;20.10;99.90
6841;DHT22;3458;53.678;14.080;2023-07-29T07:51:39;20.20;99.90
6841;DHT22;3458;53.678;14.080;2023-07-29T07:54:05;20.30;99.90
6841;DHT22;3458;53.678;14.080;2023-07-29T07:56:30;20.40;99.90
6841;DHT22;3458;53.678;14.080;2023-07-29T07:58:56;20.50;99.90
6841;DHT22;3458;53.678;14.080;2023-07-29T08:01:21;20.60;99.90
6841;DHT22;3458;53.678;14.080;2023-07-29T08:03:47;20.60;99.90
6841;DHT22;3458;53.678;14.080;2023-07-29T08:06:12;20.70;99.90
6841;DHT22;3458;53.678;14.080;2023-07-29T08:08:38;20.80;99.90
6841;DHT22;3458;53.678;14.080;2023-07-29T08:11:03;20.80;99.90
6841;DHT22;3458;53.678;14.080;2023-07-29T08:13:29;20.90;99.90
6841;DHT22;3458;53.678;14.080;2023-07-29T08:15:54;21.00;99.90
6841;DHT22;3458;53.678;14.080;2023-07-29T08:18:20;21.10;99.90
6841;DHT22;3458;53.678;14.080;2023-07-29T08:20:53;21.10;99.90
6841;DHT22;3458;53.678;14.080;2023-07-29T08:23:20;21.30;99.90
6841;DHT22;3458;53.678;14.080;2023-07-29T08:25:53;21.40;99.90
6841;DHT22;3458;53.678;14.080;2023-07-29T08:28:18;21.40;99.90
6841;DHT22;3458;53.678;14.080;2023-07-29T08:30:44;21.50;99.90
6841;DHT22;3458;53.678;14.080;2023-07-29T08:33:09;21.60;99.90
6841;DHT22;3458;53.678;14.080;2023-07-29T08:35:35;21.70;99.90
6841;DHT22;3458;53.678;14.080;2023-07-29T08:38:01;21.70;99.90
6841;DHT22;3458;53.678;14.080;2023-07-29T08:40:29;21.70;99.90
6841;DHT22;3458;53.678;14.080;2023-07-29T08:42:56;21.80;99.90
6841;DHT22;3458;53.678;14.080;2023-07-29T08:45:23;21.80;99.90
6841;DHT22;3458;53.678;14.080;2023-07-29T08:47:50;21.80;99.90
6841;DHT22;3458;53.678;14.080;2023-07-29T08:50:20;21.90;99.90
6841;DHT22;3458;53.678;14.080;2023-07-29T08:52:46;21.90;99.90
6841;DHT22;3458;53.678;14.080;2023-07-29T08:55:12;22.00;99.90
6841;DHT22;3458;53.678;14.080;2023-07-29T08:57:37;22.00;99.90
6841;DHT22;3458;53.678;14.080;2023-07-29T09:00:03;22.10;99.90
6841;DHT22;3458;53.678;14.080;2023-07-29T09:02:29;22.10;99.90
6841;DHT22;3458;53.678;14.080;2023-07-29T09:04:55;22.20;99.90
6841;DHT22;3458;53.678;14.080;2023-07-29T09:07:20;22.30;99.90
6841;DHT22;3458;53.678;14.080;2023-07-29T09:09:46;22.30;99.90
6841;DHT22;3458;53.678;14.080;2023-07-29T09:12:11;22.40;99.90
6841;DHT22;3458;53.678;14.080;2023-07-29T09:14:37;22.50;99.90
6841;DHT22;3458;53.678;14.080;2023-07-29T09:17:06;22.60;99.90
6841;DHT22;3458;53.678;14.080;2023-07-29T09:19:33;22.70;99.90
6841;DHT22;3458;53.678;14.080;2023-07-29T09:21:58;22.80;99.90
6841;DHT22;3458;53.678;14.080;2023-07-29T09:24:24;22.80;99.90
6841;DHT22;3458;53.678;14.080;2023-07-29T09:26:51;22.90;99.90
6841;DHT22;3458;53.678;14.080;2023-07-29T09:29:22;23.00;99.90
6841;DHT22;3458;53.678;14.080;2023-07-29T09:31:48;23.00;99.90
6841;DHT22;3458;53.678;14.080;2023-07-29T09:34:15;23.00;99.90
6841;DHT22;3458;53.678;14.080;2023-07-29T09:36:41;23.00;99.90
6841;DHT22;3458;53.678;14.080;2023-07-29T09:39:11;23.10;99.90
6841;DHT22;3458;53.678;14.080;2023-07-29T09:41:37;23.20;99.90
6841;DHT22;3458;53.678;14.080;2023-07-29T09:44:03;23.30;99.90
6841;DHT22;3458;53.678;14.080;2023-07-29T09:46:36;23.20;99.90
6841;DHT22;3458;53.678;14.080;2023-07-29T09:49:06;23.20;99.90
6841;DHT22;3458;53.678;14.080;2023-07-29T09:51:37;23.10;99.90
6841;DHT22;3458;53.678;14.080;2023-07-29T09:54:03;23.10;99.90
6841;DHT22;3458;53.678;14.080;2023-07-29T09:56:29;23.10;99.90
6841;DHT22;3458;53.678;14.080;2023-07-29T09:58:57;23.30;99.90
6841;DHT22;3458;53.678;14.080;2023-07-29T10:01:23;23.40;99.90
6841;DHT22;3458;53.678;14.080;2023-07-29T10:03:49;23.50;99.90
6841;DHT22;3458;53.678;14.080;2023-07-29T10:06:15;23.60;99.90
6841;DHT22;3458;53.678;14.080;2023-07-29T10:08:42;23.70;99.90
6841;DHT22;3458;53.678;14.080;2023-07-29T10:11:09;23.70;99.90
6841;DHT22;3458;53.678;14.080;2023-07-29T10:13:36;23.80;99.90
6841;DHT22;3458;53.678;14.080;2023-07-29T10:16:02;23.90;99.90
6841;DHT22;3458;53.678;14.080;2023-07-29T10:18:29;23.90;99.90
6841;DHT22;3458;53.678;14.080;2023-07-29T10:20:57;24.00;99.90
6841;DHT22;3458;53.678;14.080;2023-07-29T10:23:27;24.00;99.90
6841;DHT22;3458;53.678;14.080;2023-07-29T10:26:00;23.90;99.90
6841;DHT22;3458;53.678;14.080;2023-07-29T10:28:29;23.80;99.90
6841;DHT22;3458;53.678;14.080;2023-07-29T10:30:58;23.60;99.90
6841;DHT22;3458;53.678;14.080;2023-07-29T10:33:25;23.50;99.90
6841;DHT22;3458;53.678;14.080;2023-07-29T10:35:52;23.40;99.90
6841;DHT22;3458;53.678;14.080;2023-07-29T10:38:20;23.30;99.90
6841;DHT22;3458;53.678;14.080;2023-07-29T10:40:48;23.10;99.90
6841;DHT22;3458;53.678;14.080;2023-07-29T10:43:33;23.10;99.90
6841;DHT22;3458;53.678;14.080;2023-07-29T10:48:43;22.80;99.90
6841;DHT22;3458;53.678;14.080;2023-07-29T10:51:24;22.60;99.90
6841;DHT22;3458;53.678;14.080;2023-07-29T10:54:14;22.50;99.90
6841;DHT22;3458;53.678;14.080;2023-07-29T10:56:48;22.40;99.90
6841;DHT22;3458;53.678;14.080;2023-07-29T11:01:43;22.30;99.90
6841;DHT22;3458;53.678;14.080;2023-07-29T11:17:39;21.70;99.90
6841;DHT22;3458;53.678;14.080;2023-07-29T11:20:05;21.60;99.90
6841;DHT22;3458;53.678;14.080;2023-07-29T11:22:32;21.50;99.90
6841;DHT22;3458;53.678;14.080;2023-07-29T11:24:58;21.50;99.90
6841;DHT22;3458;53.678;14.080;2023-07-29T11:27:24;21.40;99.90
6841;DHT22;3458;53.678;14.080;2023-07-29T11:29:49;21.30;99.90
6841;DHT22;3458;53.678;14.080;2023-07-29T11:32:16;21.20;99.90
6841;DHT22;3458;53.678;14.080;2023-07-29T11:34:42;21.20;99.90
6841;DHT22;3458;53.678;14.080;2023-07-29T11:37:10;21.20;99.90
6841;DHT22;3458;53.678;14.080;2023-07-29T11:39:43;21.20;99.90
6841;DHT22;3458;53.678;14.080;2023-07-29T11:42:13;21.10;99.90
6841;DHT22;3458;53.678;14.080;2023-07-29T11:44:39;21.10;99.90
6841;DHT22;3458;53.678;14.080;2023-07-29T11:47:08;21.10;99.90
6841;DHT22;3458;53.678;14.080;2023-07-29T11:49:34;21.10;99.90
6841;DHT22;3458;53.678;14.080;2023-07-29T11:52:01;21.10;99.90
6841;DHT22;3458;53.678;14.080;2023-07-29T11:54:27;21.00;99.90
6841;DHT22;3458;53.678;14.080;2023-07-29T11:56:53;21.10;99.90
6841;DHT22;3458;53.678;14.080;2023-07-29T11:59:19;21.10;99.90
6841;DHT22;3458;53.678;14.080;2023-07-29T12:01:45;21.20;99.90
6841;DHT22;3458;53.678;14.080;2023-07-29T12:04:11;21.20;99.90
6841;DHT22;3458;53.678;14.080;2023-07-29T12:06:39;21.20;99.90
6841;DHT22;3458;53.678;14.080;2023-07-29T12:09:05;21.10;99.90
6841;DHT22;3458;53.678;14.080;2023-07-29T12:11:31;21.10;99.90
6841;DHT22;3458;53.678;14.080;2023-07-29T12:13:57;21.10;99.90
6841;DHT22;3458;53.678;14.080;2023-07-29T12:16:24;21.00;99.90
6841;DHT22;3458;53.678;14.080;2023-07-29T12:18:50;20.90;99.90
6841;DHT22;3458;53.678;14.080;2023-07-29T12:21:18;20.90;99.90
6841;DHT22;3458;53.678;14.080;2023-07-29T12:23:44;20.90;99.90
6841;DHT22;3458;53.678;14.080;2023-07-29T12:26:09;20.80;99.90
6841;DHT22;3458;53.678;14.080;2023-07-29T12:28:34;20.80;99.90
6841;DHT22;3458;53.678;14.080;2023-07-29T12:31:00;20.80;99.90
6841;DHT22;3458;53.678;14.080;2023-07-29T12:33:33;20.80;99.90
6841;DHT22;3458;53.678;14.080;2023-07-29T12:35:59;20.80;99.90
6841;DHT22;3458;53.678;14.080;2023-07-29T12:38:27;20.80;99.90
6841;DHT22;3458;53.678;14.080;2023-07-29T12:40:54;20.80;99.90
6841;DHT22;3458;53.678;14.080;2023-07-29T12:43:19;20.90;99.90
6841;DHT22;3458;53.678;14.080;2023-07-29T12:45:45;20.80;99.90
6841;DHT22;3458;53.678;14.080;2023-07-29T12:48:11;20.90;99.90
6841;DHT22;3458;53.678;14.080;2023-07-29T12:50:37;20.90;99.90
6841;DHT22;3458;53.678;14.080;2023-07-29T12:53:04;20.90;99.90
6841;DHT22;3458;53.678;14.080;2023-07-29T12:55:30;20.90;99.90
6841;DHT22;3458;53.678;14.080;2023-07-29T12:57:56;20.90;99.90
6841;DHT22;3458;53.678;14.080;2023-07-29T13:00:23;21.00;99.90
6841;DHT22;3458;53.678;14.080;2023-07-29T13:02:49;20.90;99.90
6841;DHT22;3458;53.678;14.080;2023-07-29T13:05:14;20.90;99.90
6841;DHT22;3458;53.678;14.080;2023-07-29T13:07:40;20.90;99.90
6841;DHT22;3458;53.678;14.080;2023-07-29T13:10:06;20.90;99.90
6841;DHT22;3458;53.678;14.080;2023-07-29T13:12:32;21.00;99.90
6841;DHT22;3458;53.678;14.080;2023-07-29T13:14:57;20.90;99.90
6841;DHT22;3458;53.678;14.080;2023-07-29T13:17:23;20.90;99.90
6841;DHT22;3458;53.678;14.080;2023-07-29T13:19:48;21.00;99.90
6841;DHT22;3458;53.678;14.080;2023-07-29T13:22:14;21.10;99.90
6841;DHT22;3458;53.678;14.080;2023-07-29T13:24:43;21.00;99.90
6841;DHT22;3458;53.678;14.080;2023-07-29T13:27:08;21.10;99.90
6841;DHT22;3458;53.678;14.080;2023-07-29T13:29:34;21.00;99.90
6841;DHT22;3458;53.678;14.080;2023-07-29T13:31:59;21.00;99.90
6841;DHT22;3458;53.678;14.080;2023-07-29T13:34:25;21.10;99.90
6841;DHT22;3458;53.678;14.080;2023-07-29T13:36:50;21.10;99.90
6841;DHT22;3458;53.678;14.080;2023-07-29T13:39:16;21.00;99.90
6841;DHT22;3458;53.678;14.080;2023-07-29T13:41:41;21.00;99.90
6841;DHT22;3458;53.678;14.080;2023-07-29T13:44:07;21.00;99.90
6841;DHT22;3458;53.678;14.080;2023-07-29T13:46:32;21.10;99.90
6841;DHT22;3458;53.678;14.080;2023-07-29T13:48:58;21.10;99.90
6841;DHT22;3458;53.678;14.080;2023-07-29T13:51:23;21.00;99.90
6841;DHT22;3458;53.678;14.080;2023-07-29T13:53:49;21.10;99.90
6841;DHT22;3458;53.678;14.080;2023-07-29T13:56:14;21.10;99.90
6841;DHT22;3458;53.678;14.080;2023-07-29T13:58:40;21.10;99.90
6841;DHT22;3458;53.678;14.080;2023-07-29T14:01:06;21.00;99.90
6841;DHT22;3458;53.678;14.080;2023-07-29T14:03:31;21.10;99.90
6841;DHT22;3458;53.678;14.080;2023-07-29T14:05:57;21.10;99.90
6841;DHT22;3458;53.678;14.080;2023-07-29T14:08:22;21.20;99.90
6841;DHT22;3458;53.678;14.080;2023-07-29T14:10:50;21.20;99.90
6841;DHT22;3458;53.678;14.080;2023-07-29T14:13:16;21.30;99.90
6841;DHT22;3458;53.678;14.080;2023-07-29T14:15:41;21.30;99.90
6841;DHT22;3458;53.678;14.080;2023-07-29T14:18:07;21.30;99.90
6841;DHT22;3458;53.678;14.080;2023-07-29T14:20:33;21.40;99.90
6841;DHT22;3458;53.678;14.080;2023-07-29T14:22:58;21.40;99.90
6841;DHT22;3458;53.678;14.080;2023-07-29T14:25:24;21.40;99.90
6841;DHT22;3458;53.678;14.080;2023-07-29T14:27:50;21.50;99.90
6841;DHT22;3458;53.678;14.080;2023-07-29T14:30:15;21.40;99.90
6841;DHT22;3458;53.678;14.080;2023-07-29T14:32:41;21.40;99.90
6841;DHT22;3458;53.678;14.080;2023-07-29T14:35:06;21.50;99.90
6841;DHT22;3458;53.678;14.080;2023-07-29T14:37:33;21.50;99.90
6841;DHT22;3458;53.678;14.080;2023-07-29T14:39:59;21.50;99.90
6841;DHT22;3458;53.678;14.080;2023-07-29T14:42:25;21.60;99.90
6841;DHT22;3458;53.678;14.080;2023-07-29T14:44:50;21.60;99.90
6841;DHT22;3458;53.678;14.080;2023-07-29T14:47:16;21.70;99.90
6841;DHT22;3458;53.678;14.080;2023-07-29T14:49:42;21.70;99.90
6841;DHT22;3458;53.678;14.080;2023-07-29T14:52:07;21.80;99.90
6841;DHT22;3458;53.678;14.080;2023-07-29T14:54:33;22.00;99.90
6841;DHT22;3458;53.678;14.080;2023-07-29T14:56:58;22.10;99.90
6841;DHT22;3458;53.678;14.080;2023-07-29T14:59:24;22.20;99.90
6841;DHT22;3458;53.678;14.080;2023-07-29T15:01:49;22.30;99.90
6841;DHT22;3458;53.678;14.080;2023-07-29T15:04:15;22.40;99.90
6841;DHT22;3458;53.678;14.080;2023-07-29T15:06:40;22.50;99.90
6841;DHT22;3458;53.678;14.080;2023-07-29T15:09:06;22.40;99.90
6841;DHT22;3458;53.678;14.080;2023-07-29T15:11:32;22.30;99.90
6841;DHT22;3458;53.678;14.080;2023-07-29T15:13:58;22.30;99.90
6841;DHT22;3458;53.678;14.080;2023-07-29T15:16:24;22.30;99.90
6841;DHT22;3458;53.678;14.080;2023-07-29T15:18:50;22.40;99.90
6841;DHT22;3458;53.678;14.080;2023-07-29T15:21:16;22.60;99.90
6841;DHT22;3458;53.678;14.080;2023-07-29T15:23:43;22.60;99.90
6841;DHT22;3458;53.678;14.080;2023-07-29T15:26:08;22.90;99.90
6841;DHT22;3458;53.678;14.080;2023-07-29T15:28:34;23.80;99.90
6841;DHT22;3458;53.678;14.080;2023-07-29T15:31:01;25.60;99.90
6841;DHT22;3458;53.678;14.080;2023-07-29T15:33:27;27.10;99.90
6841;DHT22;3458;53.678;14.080;2023-07-29T15:35:52;27.70;99.90
6841;DHT22;3458;53.678;14.080;2023-07-29T15:38:18;26.90;99.90
6841;DHT22;3458;53.678;14.080;2023-07-29T15:40:44;26.00;99.90
6841;DHT22;3458;53.678;14.080;2023-07-29T15:43:09;25.60;99.90
6841;DHT22;3458;53.678;14.080;2023-07-29T15:45:35;25.50;99.90
6841;DHT22;3458;53.678;14.080;2023-07-29T15:48:01;25.00;99.90
6841;DHT22;3458;53.678;14.080;2023-07-29T15:50:28;24.50;99.90
6841;DHT22;3458;53.678;14.080;2023-07-29T15:52:53;24.10;99.90
6841;DHT22;3458;53.678;14.080;2023-07-29T15:55:19;23.70;99.90
6841;DHT22;3458;53.678;14.080;2023-07-29T15:57:45;23.50;99.90
6841;DHT22;3458;53.678;14.080;2023-07-29T16:00:11;23.20;99.90